createdAt,value
2018-12-16T00:01:58.865Z,95.00
2018-12-16T00:04:29.880Z,95.30
2018-12-16T00:07:00.916Z,95.60
2018-12-16T00:09:30.610Z,95.70
2018-12-16T00:11:59.680Z,95.90
2018-12-16T00:14:30.669Z,96.30
2018-12-16T00:16:59.849Z,96.40
2018-12-16T00:19:29.109Z,96.30
2018-12-16T00:21:58.205Z,96.50
2018-12-16T00:24:27.304Z,96.50
2018-12-16T00:27:08.783Z,96.70
2018-12-16T00:29:37.864Z,97.00
2018-12-16T00:32:07.037Z,97.20
2018-12-16T00:34:36.303Z,97.10
2018-12-16T00:37:05.458Z,97.40
2018-12-16T00:39:34.570Z,97.60
2018-12-16T00:42:03.763Z,97.60
2018-12-16T00:44:33.054Z,97.70
2018-12-16T00:47:02.140Z,97.80
2018-12-16T00:49:31.257Z,98.00
2018-12-16T00:52:00.545Z,98.10
2018-12-16T00:54:29.667Z,98.40
2018-12-16T00:56:58.705Z,98.50
2018-12-16T00:59:27.768Z,98.70
2018-12-16T01:01:58.721Z,98.80
2018-12-16T01:04:27.893Z,99.00
2018-12-16T01:06:57.019Z,99.00
2018-12-16T01:09:26.097Z,99.00
2018-12-16T01:11:55.149Z,99.10
2018-12-16T01:14:24.261Z,99.10
2018-12-16T01:16:53.384Z,99.00
2018-12-16T01:19:22.372Z,99.10
2018-12-16T01:21:51.558Z,99.00
2018-12-16T01:24:20.602Z,99.30
2018-12-16T01:26:49.640Z,99.20
2018-12-16T01:29:18.742Z,99.10
2018-12-16T01:31:47.806Z,99.10
2018-12-16T01:34:16.881Z,99.10
2018-12-16T01:36:45.953Z,99.20
2018-12-16T01:39:15.108Z,99.30
2018-12-16T01:41:44.133Z,99.20
2018-12-16T01:44:13.297Z,99.40
2018-12-16T01:46:42.341Z,99.40
2018-12-16T01:49:11.485Z,99.30
2018-12-16T01:51:40.608Z,99.40
2018-12-16T01:54:09.649Z,99.50
2018-12-16T01:56:38.690Z,99.50
2018-12-16T01:59:07.757Z,99.50
2018-12-16T02:01:38.857Z,99.40
2018-12-16T02:04:07.848Z,99.20
2018-12-16T02:06:37.071Z,99.30
2018-12-16T02:09:07.109Z,99.20
2018-12-16T02:11:38.278Z,99.30
2018-12-16T02:14:07.263Z,99.20
2018-12-16T02:16:36.457Z,99.30
2018-12-16T02:19:05.478Z,99.30
2018-12-16T02:21:34.591Z,99.30
2018-12-16T02:24:04.236Z,99.30
2018-12-16T02:26:33.233Z,99.30
2018-12-16T02:29:02.381Z,98.90
2018-12-16T02:31:31.476Z,99.20
2018-12-16T02:34:00.793Z,99.20
2018-12-16T02:36:30.017Z,99.30
2018-12-16T02:38:59.178Z,99.20
2018-12-16T02:41:28.262Z,99.20
2018-12-16T02:43:57.313Z,99.30
2018-12-16T02:46:26.390Z,99.30
2018-12-16T02:48:55.430Z,99.60
2018-12-16T02:51:24.518Z,99.10
2018-12-16T02:53:53.543Z,99.10
2018-12-16T02:56:22.530Z,99.10
2018-12-16T02:58:51.585Z,99.00
2018-12-16T03:01:20.819Z,99.10
2018-12-16T03:03:49.813Z,99.20
2018-12-16T03:06:18.937Z,99.10
2018-12-16T03:08:47.994Z,99.30
2018-12-16T03:11:17.015Z,99.30
2018-12-16T03:13:46.239Z,99.50
2018-12-16T03:16:15.342Z,99.40
2018-12-16T03:18:44.392Z,99.70
2018-12-16T03:21:13.534Z,99.30
2018-12-16T03:23:42.557Z,99.30
2018-12-16T03:26:11.626Z,99.10
2018-12-16T03:28:40.666Z,99.20
2018-12-16T03:31:09.872Z,99.40
2018-12-16T03:33:38.897Z,99.10
2018-12-16T03:36:08.137Z,99.10
2018-12-16T03:38:37.262Z,99.00
2018-12-16T03:41:06.340Z,98.90
2018-12-16T03:43:35.344Z,98.90
2018-12-16T03:46:04.538Z,98.60
2018-12-16T03:48:33.616Z,98.80
2018-12-16T03:51:02.634Z,98.60
2018-12-16T03:53:31.637Z,98.70
2018-12-16T03:56:00.640Z,99.00
2018-12-16T03:58:29.633Z,98.90
2018-12-16T04:00:58.639Z,98.90
2018-12-16T04:03:27.677Z,98.90
2018-12-16T04:05:56.742Z,98.90
2018-12-16T04:08:25.877Z,98.70
2018-12-16T04:10:56.025Z,98.80
2018-12-16T04:13:25.149Z,98.70
2018-12-16T04:15:56.175Z,98.90
2018-12-16T04:18:25.267Z,98.70
2018-12-16T04:20:54.326Z,98.60
2018-12-16T04:23:27.395Z,98.70
2018-12-16T04:25:54.453Z,98.80
2018-12-16T04:28:23.763Z,98.80
2018-12-16T04:30:52.800Z,98.70
2018-12-16T04:33:21.833Z,98.90
2018-12-16T04:35:50.926Z,98.90
2018-12-16T04:38:20.031Z,98.90
2018-12-16T04:40:49.129Z,98.90
2018-12-16T04:43:18.169Z,98.80
2018-12-16T04:45:47.237Z,98.80
2018-12-16T04:48:16.275Z,98.90
2018-12-16T04:50:45.422Z,99.00
2018-12-16T04:53:14.493Z,98.80
2018-12-16T04:55:43.526Z,98.80
2018-12-16T04:58:12.608Z,98.90
2018-12-16T05:00:41.697Z,98.80
2018-12-16T05:03:10.930Z,99.00
2018-12-16T05:05:40.137Z,99.10
2018-12-16T05:08:09.409Z,99.00
2018-12-16T05:10:38.453Z,99.00
2018-12-16T05:13:07.495Z,99.00
2018-12-16T05:15:36.692Z,99.00
2018-12-16T05:18:05.769Z,98.90
2018-12-16T05:20:34.812Z,98.80
2018-12-16T05:23:03.958Z,98.70
2018-12-16T05:25:35.050Z,98.70
2018-12-16T05:28:04.195Z,98.60
2018-12-16T05:30:33.322Z,98.40
2018-12-16T05:33:02.325Z,98.80
2018-12-16T05:35:31.406Z,98.30
2018-12-16T05:38:00.636Z,98.50
2018-12-16T05:40:29.883Z,98.60
2018-12-16T05:42:58.989Z,98.50
2018-12-16T05:45:28.114Z,98.40
2018-12-16T05:47:57.135Z,98.40
2018-12-16T05:50:26.286Z,98.60
2018-12-16T05:52:55.353Z,98.40
2018-12-16T05:55:24.449Z,98.40
2018-12-16T05:57:53.434Z,98.30
2018-12-16T06:00:22.530Z,98.50
2018-12-16T06:02:51.532Z,98.40
2018-12-16T06:05:20.678Z,98.30
2018-12-16T06:07:49.777Z,98.20
2018-12-16T06:10:18.945Z,98.00
2018-12-16T06:12:49.175Z,98.10
2018-12-16T06:15:18.261Z,98.10
2018-12-16T06:17:47.268Z,98.10
2018-12-16T06:20:16.322Z,98.50
2018-12-16T06:22:45.365Z,98.10
2018-12-16T06:25:14.435Z,97.90
2018-12-16T06:27:43.566Z,98.10
2018-12-16T06:30:13.045Z,98.10
2018-12-16T06:32:42.137Z,97.90
2018-12-16T06:35:11.246Z,97.80
2018-12-16T06:37:40.533Z,98.00
2018-12-16T06:40:09.556Z,98.00
2018-12-16T06:42:38.845Z,97.70
2018-12-16T06:45:07.914Z,97.80
2018-12-16T06:47:37.170Z,97.60
2018-12-16T06:50:07.002Z,97.50
2018-12-16T06:52:36.078Z,97.50
2018-12-16T06:55:05.655Z,97.70
2018-12-16T06:57:34.769Z,97.70
2018-12-16T07:00:04.326Z,97.60
2018-12-16T07:02:33.387Z,97.70
2018-12-16T07:05:02.489Z,97.60
2018-12-16T07:07:31.698Z,97.60
2018-12-16T07:10:00.739Z,97.50
2018-12-16T07:12:29.750Z,97.40
2018-12-16T07:14:58.883Z,97.50
2018-12-16T07:17:28.076Z,97.50
2018-12-16T07:19:57.251Z,97.30
2018-12-16T07:22:26.279Z,97.20
2018-12-16T07:24:55.334Z,97.20
2018-12-16T07:27:24.394Z,97.30
2018-12-16T07:29:53.436Z,97.00
2018-12-16T07:32:23.777Z,97.10
2018-12-16T07:34:53.045Z,96.90
2018-12-16T07:37:22.134Z,97.10
2018-12-16T07:39:51.240Z,97.00
2018-12-16T07:42:20.348Z,96.90
2018-12-16T07:44:49.377Z,96.90
2018-12-16T07:47:18.704Z,96.80
2018-12-16T07:49:47.960Z,96.70
2018-12-16T07:52:17.024Z,96.70
2018-12-16T07:54:46.120Z,96.70
2018-12-16T07:57:15.221Z,96.50
2018-12-16T07:59:44.354Z,96.50
2018-12-16T08:02:13.460Z,96.50
2018-12-16T08:04:42.457Z,97.00
2018-12-16T08:07:11.437Z,96.90
2018-12-16T08:09:40.494Z,96.60
2018-12-16T08:12:09.563Z,96.20
2018-12-16T08:14:38.661Z,96.50
2018-12-16T08:17:07.807Z,96.40
2018-12-16T08:19:36.830Z,96.30
2018-12-16T08:22:05.824Z,96.50
2018-12-16T08:24:34.841Z,96.20
2018-12-16T08:27:03.981Z,96.10
2018-12-16T08:29:33.328Z,96.00
2018-12-16T08:32:02.445Z,96.00
2018-12-16T08:34:31.631Z,95.90
2018-12-16T08:37:00.689Z,95.70
2018-12-16T08:39:29.909Z,95.80
2018-12-16T08:41:58.921Z,95.50
2018-12-16T08:44:28.081Z,95.60
2018-12-16T08:46:57.155Z,95.40
2018-12-16T08:49:26.188Z,95.30
2018-12-16T08:51:55.469Z,95.30
2018-12-16T08:54:30.095Z,95.10
2018-12-16T08:56:55.496Z,95.00
2018-12-16T08:59:24.606Z,95.20
2018-12-16T09:01:53.661Z,95.20
2018-12-16T09:04:23.109Z,95.20
2018-12-16T09:06:52.141Z,95.10
2018-12-16T09:09:21.682Z,95.10
2018-12-16T09:11:50.694Z,95.30
2018-12-16T09:14:19.906Z,94.90
2018-12-16T09:16:48.981Z,94.90
2018-12-16T09:19:17.975Z,95.10
2018-12-16T09:21:47.113Z,95.30
2018-12-16T09:24:16.450Z,95.20
2018-12-16T09:26:45.466Z,95.40
2018-12-16T09:29:14.622Z,95.70
2018-12-16T09:31:43.803Z,95.70
2018-12-16T09:34:12.845Z,95.80
2018-12-16T09:36:41.839Z,95.80
2018-12-16T09:39:10.990Z,96.00
2018-12-16T09:41:40.370Z,96.20
2018-12-16T09:44:09.448Z,96.30
2018-12-16T09:46:38.597Z,96.10
2018-12-16T09:49:07.684Z,96.20
2018-12-16T09:51:36.680Z,96.10
2018-12-16T09:54:06.028Z,96.00
2018-12-16T09:56:35.050Z,95.80
2018-12-16T09:59:04.246Z,95.80
2018-12-16T10:01:33.430Z,95.50
2018-12-16T10:04:02.585Z,95.40
2018-12-16T10:06:31.577Z,95.00
2018-12-16T10:09:00.617Z,95.10
2018-12-16T10:11:29.969Z,95.00
2018-12-16T10:13:59.322Z,94.90
2018-12-16T10:16:28.444Z,94.90
2018-12-16T10:18:57.479Z,94.80
2018-12-16T10:21:26.698Z,94.80
2018-12-16T10:23:55.921Z,94.80
2018-12-16T10:26:25.246Z,94.90
2018-12-16T10:28:54.305Z,94.40
2018-12-16T10:31:23.441Z,94.60
2018-12-16T10:33:52.512Z,94.80
2018-12-16T10:36:21.745Z,94.90
2018-12-16T10:38:50.770Z,94.80
2018-12-16T10:41:19.837Z,95.00
2018-12-16T10:43:48.961Z,95.10
2018-12-16T10:46:18.012Z,95.10
2018-12-16T10:48:47.079Z,95.30
2018-12-16T10:51:16.213Z,95.80
2018-12-16T10:53:45.223Z,95.30
2018-12-16T10:56:14.216Z,95.40
2018-12-16T10:58:43.365Z,95.30
2018-12-16T11:01:31.918Z,95.40
2018-12-16T11:04:00.956Z,95.00
2018-12-16T11:06:30.050Z,95.00
2018-12-16T11:08:59.297Z,95.00
2018-12-16T11:11:28.352Z,95.30
2018-12-16T11:13:57.462Z,95.40
2018-12-16T11:16:26.577Z,95.80
2018-12-16T11:18:55.704Z,95.70
2018-12-16T11:21:24.697Z,95.70
2018-12-16T11:23:54.043Z,95.80
2018-12-16T11:26:23.349Z,95.90
2018-12-16T11:28:52.512Z,95.50
2018-12-16T11:31:21.740Z,95.60
2018-12-16T11:33:50.832Z,95.80
2018-12-16T11:36:19.956Z,96.20
2018-12-16T11:38:49.188Z,95.30
2018-12-16T11:41:18.372Z,95.30
2018-12-16T11:43:47.521Z,95.60
2018-12-16T11:46:16.600Z,95.30
2018-12-16T11:48:45.708Z,95.30
2018-12-16T11:51:14.962Z,95.30
2018-12-16T11:53:44.206Z,95.20
2018-12-16T11:56:13.965Z,95.20
2018-12-16T11:58:43.651Z,95.20
2018-12-16T12:01:12.754Z,95.30
2018-12-16T12:03:41.797Z,94.90
2018-12-16T12:06:11.157Z,95.00
2018-12-16T12:08:41.101Z,95.10
2018-12-16T12:11:10.269Z,94.90
2018-12-16T12:13:39.433Z,95.10
2018-12-16T12:16:08.601Z,94.90
2018-12-16T12:18:37.765Z,94.80
2018-12-16T12:21:06.907Z,95.00
2018-12-16T12:23:36.085Z,95.00
2018-12-16T12:26:05.405Z,94.90
2018-12-16T12:28:34.713Z,95.10
2018-12-16T12:31:05.029Z,94.90
2018-12-16T12:33:34.074Z,95.00
2018-12-16T12:36:03.190Z,94.80
2018-12-16T12:38:32.531Z,95.00
2018-12-16T12:41:01.662Z,95.40
2018-12-16T12:43:30.646Z,95.30
2018-12-16T12:45:59.636Z,95.10
2018-12-16T12:48:30.423Z,95.10
2018-12-16T12:50:59.641Z,95.10
2018-12-16T12:53:28.833Z,94.80
2018-12-16T12:55:57.842Z,95.00
2018-12-16T12:58:26.914Z,95.00
2018-12-16T13:00:55.906Z,94.90
2018-12-16T13:03:25.474Z,95.00
2018-12-16T13:05:54.696Z,95.20
2018-12-16T13:08:23.829Z,95.80
2018-12-16T13:10:52.912Z,95.90
2018-12-16T13:13:22.251Z,95.40
2018-12-16T13:15:51.879Z,95.30
2018-12-16T13:18:21.138Z,95.50
2018-12-16T13:20:50.211Z,95.20
2018-12-16T13:23:19.315Z,95.40
2018-12-16T13:25:59.653Z,95.60
2018-12-16T13:28:29.024Z,95.40
2018-12-16T13:30:58.125Z,95.90
2018-12-16T13:33:27.142Z,95.40
2018-12-16T13:35:56.165Z,95.50
2018-12-16T13:38:25.222Z,95.50
2018-12-16T13:40:54.306Z,95.60
2018-12-16T13:43:23.635Z,95.60
2018-12-16T13:45:52.741Z,95.90
2018-12-16T13:48:21.817Z,96.10
2018-12-16T13:50:50.957Z,96.00
2018-12-16T13:53:20.211Z,96.10
2018-12-16T13:55:49.775Z,96.20
2018-12-16T13:58:19.094Z,95.90
2018-12-16T14:00:48.154Z,95.80
2018-12-16T14:03:17.461Z,95.90
2018-12-16T14:05:47.038Z,95.60
2018-12-16T14:08:16.250Z,95.70
2018-12-16T14:10:45.429Z,95.70
2018-12-16T14:13:14.556Z,95.90
2018-12-16T14:15:43.817Z,95.70
2018-12-16T14:18:13.030Z,95.40
2018-12-16T14:20:42.051Z,95.20
2018-12-16T14:23:11.211Z,95.80
2018-12-16T14:25:40.214Z,95.60
2018-12-16T14:28:09.336Z,95.70
2018-12-16T14:30:38.632Z,95.80
2018-12-16T14:33:08.616Z,95.80
2018-12-16T14:35:37.671Z,95.50
2018-12-16T14:38:07.363Z,95.70
2018-12-16T14:40:36.444Z,95.70
2018-12-16T14:43:05.601Z,95.60
2018-12-16T14:45:34.787Z,95.60
2018-12-16T14:48:03.852Z,95.40
2018-12-16T14:50:33.835Z,95.50
2018-12-16T14:53:02.837Z,95.40
2018-12-16T14:55:32.112Z,95.60
2018-12-16T14:58:01.163Z,95.60
2018-12-16T15:00:30.203Z,95.50
2018-12-16T15:02:59.215Z,95.50
2018-12-16T15:05:28.397Z,95.60
2018-12-16T15:07:58.501Z,95.60
2018-12-16T15:10:27.555Z,95.70
2018-12-16T15:12:58.069Z,96.00
2018-12-16T15:15:28.193Z,95.60
2018-12-16T15:17:57.344Z,95.80
2018-12-16T15:20:26.454Z,95.70
2018-12-16T15:22:55.581Z,95.50
2018-12-16T15:25:24.676Z,95.70
2018-12-16T15:27:53.771Z,95.50
2018-12-16T15:30:22.897Z,95.50
2018-12-16T15:32:52.024Z,95.50
2018-12-16T15:35:21.125Z,95.40
2018-12-16T15:37:50.415Z,95.50
2018-12-16T15:40:19.758Z,95.70
2018-12-16T15:42:48.953Z,95.90
2018-12-16T15:45:18.086Z,95.70
2018-12-16T15:47:47.213Z,95.70
2018-12-16T15:50:16.335Z,95.70
2018-12-16T15:52:45.387Z,95.80
2018-12-16T15:55:14.525Z,95.90
2018-12-16T15:57:43.618Z,96.10
2018-12-16T16:00:13.169Z,96.20
2018-12-16T16:02:42.637Z,96.00
2018-12-16T16:05:11.666Z,96.10
2018-12-16T16:07:40.765Z,96.10
2018-12-16T16:10:10.179Z,96.00
2018-12-16T16:12:39.327Z,96.00
2018-12-16T16:15:08.788Z,95.90
2018-12-16T16:17:38.236Z,96.00
2018-12-16T16:20:07.579Z,95.90
2018-12-16T16:22:36.796Z,95.90
2018-12-16T16:25:06.641Z,95.90
2018-12-16T16:27:35.765Z,95.80
2018-12-16T16:30:06.107Z,95.90
2018-12-16T16:32:35.271Z,95.80
2018-12-16T16:35:04.533Z,96.00
2018-12-16T16:37:33.623Z,96.10
2018-12-16T16:40:03.064Z,96.00
2018-12-16T16:42:32.279Z,95.80
2018-12-16T16:45:01.320Z,96.10
2018-12-16T16:47:31.816Z,96.20
2018-12-16T16:50:00.928Z,96.10
2018-12-16T16:52:30.069Z,96.20
2018-12-16T16:55:00.078Z,96.30
2018-12-16T16:57:29.098Z,96.30
2018-12-16T16:59:58.134Z,96.20
2018-12-16T17:02:27.168Z,96.40
2018-12-16T17:04:56.169Z,96.50
2018-12-16T17:07:25.358Z,96.50
2018-12-16T17:09:54.591Z,96.60
2018-12-16T17:12:24.164Z,96.70
2018-12-16T17:14:54.283Z,96.60
2018-12-16T17:17:23.490Z,96.40
2018-12-16T17:19:52.592Z,96.30
2018-12-16T17:22:21.748Z,96.50
2018-12-16T17:24:50.800Z,96.50
2018-12-16T17:27:19.939Z,96.60
2018-12-16T17:29:49.334Z,96.60
2018-12-16T17:32:18.421Z,96.60
2018-12-16T17:34:47.476Z,96.60
2018-12-16T17:37:16.642Z,96.50
2018-12-16T17:39:45.869Z,96.60
2018-12-16T17:42:15.021Z,96.60
2018-12-16T17:44:44.086Z,96.60
2018-12-16T17:47:13.240Z,96.50
2018-12-16T17:49:42.365Z,96.40
2018-12-16T17:52:11.587Z,96.30
2018-12-16T17:54:41.821Z,96.40
2018-12-16T17:57:11.081Z,96.40
2018-12-16T17:59:40.525Z,96.70
2018-12-16T18:02:09.591Z,96.30
2018-12-16T18:04:38.725Z,96.80
2018-12-16T18:07:07.761Z,96.40
2018-12-16T18:09:37.012Z,96.40
2018-12-16T18:12:06.151Z,96.40
2018-12-16T18:14:35.333Z,96.30
2018-12-16T18:17:05.391Z,96.20
2018-12-16T18:19:34.560Z,96.10
2018-12-16T18:22:03.761Z,96.20
2018-12-16T18:24:32.734Z,96.20
2018-12-16T18:27:01.855Z,96.10
2018-12-16T18:29:31.045Z,96.10
2018-12-16T18:32:00.226Z,96.00
2018-12-16T18:34:29.385Z,95.90
2018-12-16T18:36:58.560Z,96.00
2018-12-16T18:39:27.620Z,96.00
2018-12-16T18:41:56.919Z,96.10
2018-12-16T18:44:26.022Z,96.10
2018-12-16T18:46:55.359Z,96.10
2018-12-16T18:49:24.417Z,96.10
2018-12-16T18:51:53.441Z,95.90
2018-12-16T18:54:22.594Z,96.00
2018-12-16T18:56:51.756Z,95.90
2018-12-16T18:59:20.804Z,95.90
2018-12-16T19:01:49.816Z,95.90
2018-12-16T19:04:21.036Z,96.00
2018-12-16T19:06:50.084Z,95.90
2018-12-16T19:09:19.187Z,96.00
2018-12-16T19:11:48.213Z,95.90
2018-12-16T19:14:17.566Z,95.90
2018-12-16T19:16:46.612Z,95.90
2018-12-16T19:19:16.018Z,95.80
2018-12-16T19:21:45.244Z,95.80
2018-12-16T19:24:14.280Z,95.80
2018-12-16T19:26:43.385Z,95.90
2018-12-16T19:29:13.385Z,95.90
2018-12-16T19:31:42.532Z,95.90
2018-12-16T19:34:11.745Z,95.70
2018-12-16T19:36:41.044Z,95.60
2018-12-16T19:39:10.206Z,95.70
2018-12-16T19:41:41.291Z,95.60
2018-12-16T19:44:10.460Z,95.70
2018-12-16T19:46:39.704Z,95.70
2018-12-16T19:49:08.950Z,95.70
2018-12-16T19:51:38.090Z,95.70
2018-12-16T19:54:07.099Z,95.60
2018-12-16T19:56:36.466Z,95.60
2018-12-16T19:59:05.841Z,95.90
2018-12-16T20:01:35.074Z,95.50
2018-12-16T20:04:09.325Z,95.40
2018-12-16T20:06:44.662Z,95.40
2018-12-16T20:09:13.835Z,95.40
2018-12-16T20:11:43.173Z,95.30
2018-12-16T20:14:12.215Z,95.40
2018-12-16T20:16:41.458Z,95.30
2018-12-16T20:19:10.701Z,95.40
2018-12-16T20:21:39.772Z,95.30
2018-12-16T20:24:08.971Z,95.50
2018-12-16T20:26:38.053Z,95.40
2018-12-16T20:29:07.216Z,95.20
2018-12-16T20:31:36.394Z,95.20
2018-12-16T20:34:05.545Z,95.30
2018-12-16T20:36:34.596Z,95.40
2018-12-16T20:39:04.638Z,95.10
2018-12-16T20:41:35.813Z,94.80
2018-12-16T20:44:04.873Z,94.80
2018-12-16T20:46:34.048Z,94.80
2018-12-16T20:49:03.110Z,94.70
2018-12-16T20:51:32.174Z,94.70
2018-12-16T20:54:01.333Z,94.50
2018-12-16T20:56:31.034Z,94.70
2018-12-16T20:59:00.082Z,94.70
2018-12-16T21:01:29.258Z,94.70
2018-12-16T21:03:58.301Z,94.60
2018-12-16T21:06:28.445Z,94.50
2018-12-16T21:08:57.561Z,94.60
2018-12-16T21:11:32.043Z,94.20
2018-12-16T21:14:06.405Z,94.30
2018-12-16T21:16:40.923Z,94.20
2018-12-16T21:19:10.146Z,94.00
2018-12-16T21:21:39.156Z,94.10
2018-12-16T21:24:08.275Z,93.70
2018-12-16T21:26:37.271Z,93.80
2018-12-16T21:29:06.516Z,93.60
2018-12-16T21:31:35.671Z,93.60
2018-12-16T21:34:05.429Z,93.40
2018-12-16T21:36:34.607Z,93.40
2018-12-16T21:39:04.946Z,93.40
2018-12-16T21:41:36.092Z,93.40
2018-12-16T21:44:05.141Z,93.60
2018-12-16T21:46:34.383Z,93.70
2018-12-16T21:49:03.582Z,93.80
2018-12-16T21:51:32.754Z,93.70
2018-12-16T21:54:01.919Z,94.00
2018-12-16T21:56:32.109Z,94.00
2018-12-16T21:59:02.550Z,93.90
2018-12-16T22:01:33.279Z,93.80
2018-12-16T22:04:02.364Z,93.90
2018-12-16T22:06:31.609Z,93.90
2018-12-16T22:09:00.858Z,94.10
2018-12-16T22:11:31.984Z,94.10
2018-12-16T22:14:01.053Z,94.20
2018-12-16T22:16:30.397Z,94.10
2018-12-16T22:18:59.697Z,93.90
2018-12-16T22:21:28.792Z,93.80
2018-12-16T22:23:57.845Z,94.20
2018-12-16T22:26:26.844Z,93.80
2018-12-16T22:28:56.152Z,93.90
2018-12-16T22:31:25.248Z,93.90
2018-12-16T22:33:54.803Z,93.70
2018-12-16T22:36:23.830Z,93.80
2018-12-16T22:38:52.877Z,93.80
2018-12-16T22:41:21.989Z,93.90
2018-12-16T22:43:51.613Z,94.10
2018-12-16T22:46:21.177Z,93.80
2018-12-16T22:48:50.428Z,93.80
2018-12-16T22:51:19.638Z,93.80
2018-12-16T22:53:48.731Z,93.80
2018-12-16T22:56:17.774Z,93.60
2018-12-16T22:58:46.871Z,93.70
2018-12-16T23:01:17.717Z,93.70
2018-12-16T23:03:48.340Z,93.50
2018-12-16T23:06:17.562Z,93.30
2018-12-16T23:08:46.681Z,93.20
2018-12-16T23:11:16.054Z,93.10
2018-12-16T23:13:45.410Z,93.00
2018-12-16T23:16:14.504Z,92.80
2018-12-16T23:18:43.886Z,92.90
2018-12-16T23:21:13.101Z,93.20
2018-12-16T23:23:42.221Z,92.60
2018-12-16T23:26:11.337Z,92.70
2018-12-16T23:28:40.773Z,92.60
2018-12-16T23:31:09.974Z,92.50
2018-12-16T23:33:39.048Z,92.50
2018-12-16T23:36:08.135Z,92.30
2018-12-16T23:38:37.207Z,91.80
2018-12-16T23:41:06.324Z,92.20
2018-12-16T23:43:35.344Z,91.90
2018-12-16T23:46:04.697Z,92.20
2018-12-16T23:48:33.792Z,92.50
2018-12-16T23:51:03.038Z,91.90
2018-12-16T23:53:33.972Z,92.30
2018-12-16T23:56:03.159Z,92.10
2018-12-16T23:58:32.170Z,91.80
